sensor_id;sensor_type;location;lat;lon;timestamp;P1;durP1;ratioP1;P2;durP2;ratioP2
2225;SDS011;1119;48.288;8.726;2023-04-21T00:00:32;9.97;;;9.17;;
2225;SDS011;1119;48.288;8.726;2023-04-21T00:03:20;10.20;;;9.20;;
2225;SDS011;1119;48.288;8.726;2023-04-21T00:06:09;9.93;;;8.93;;
2225;SDS011;1119;48.288;8.726;2023-04-21T00:08:56;9.00;;;8.20;;
2225;SDS011;1119;48.288;8.726;2023-04-21T00:11:45;9.47;;;8.57;;
2225;SDS011;1119;48.288;8.726;2023-04-21T00:14:33;9.87;;;8.43;;
2225;SDS011;1119;48.288;8.726;2023-04-21T00:17:20;10.53;;;9.57;;
2225;SDS011;1119;48.288;8.726;2023-04-21T00:20:08;11.60;;;10.43;;
2225;SDS011;1119;48.288;8.726;2023-04-21T00:22:58;8.80;;;7.87;;
2225;SDS011;1119;48.288;8.726;2023-04-21T00:25:45;11.33;;;10.23;;
2225;SDS011;1119;48.288;8.726;2023-04-21T00:28:34;10.10;;;8.97;;
2225;SDS011;1119;48.288;8.726;2023-04-21T00:31:23;10.27;;;8.83;;
2225;SDS011;1119;48.288;8.726;2023-04-21T00:34:11;12.07;;;10.47;;
2225;SDS011;1119;48.288;8.726;2023-04-21T00:36:58;9.40;;;8.73;;
2225;SDS011;1119;48.288;8.726;2023-04-21T00:39:46;9.67;;;8.77;;
2225;SDS011;1119;48.288;8.726;2023-04-21T00:42:33;9.00;;;8.10;;
2225;SDS011;1119;48.288;8.726;2023-04-21T00:45:22;9.07;;;8.03;;
2225;SDS011;1119;48.288;8.726;2023-04-21T00:48:10;11.20;;;10.10;;
2225;SDS011;1119;48.288;8.726;2023-04-21T00:50:58;9.53;;;8.60;;
2225;SDS011;1119;48.288;8.726;2023-04-21T00:53:46;10.60;;;9.70;;
2225;SDS011;1119;48.288;8.726;2023-04-21T00:56:34;9.40;;;8.50;;
2225;SDS011;1119;48.288;8.726;2023-04-21T00:59:22;11.63;;;8.83;;
2225;SDS011;1119;48.288;8.726;2023-04-21T01:02:11;9.27;;;8.37;;
2225;SDS011;1119;48.288;8.726;2023-04-21T01:05:00;10.27;;;9.13;;
2225;SDS011;1119;48.288;8.726;2023-04-21T01:07:50;9.90;;;9.03;;
2225;SDS011;1119;48.288;8.726;2023-04-21T01:10:38;10.70;;;9.30;;
2225;SDS011;1119;48.288;8.726;2023-04-21T01:13:25;8.47;;;7.67;;
2225;SDS011;1119;48.288;8.726;2023-04-21T01:16:15;8.57;;;7.77;;
2225;SDS011;1119;48.288;8.726;2023-04-21T01:19:05;8.38;;;7.55;;
2225;SDS011;1119;48.288;8.726;2023-04-21T01:21:54;9.47;;;8.57;;
2225;SDS011;1119;48.288;8.726;2023-04-21T01:24:43;10.00;;;9.07;;
2225;SDS011;1119;48.288;8.726;2023-04-21T01:27:32;10.07;;;8.73;;
2225;SDS011;1119;48.288;8.726;2023-04-21T01:30:20;9.63;;;8.70;;
2225;SDS011;1119;48.288;8.726;2023-04-21T01:33:08;8.87;;;8.10;;
2225;SDS011;1119;48.288;8.726;2023-04-21T01:35:55;8.27;;;7.57;;
2225;SDS011;1119;48.288;8.726;2023-04-21T01:38:45;8.80;;;8.03;;
2225;SDS011;1119;48.288;8.726;2023-04-21T01:41:33;8.67;;;7.90;;
2225;SDS011;1119;48.288;8.726;2023-04-21T01:44:20;7.35;;;6.68;;
2225;SDS011;1119;48.288;8.726;2023-04-21T01:47:08;7.07;;;6.57;;
2225;SDS011;1119;48.288;8.726;2023-04-21T01:49:56;8.73;;;7.85;;
2225;SDS011;1119;48.288;8.726;2023-04-21T01:52:43;10.20;;;9.30;;
2225;SDS011;1119;48.288;8.726;2023-04-21T01:55:32;8.85;;;7.75;;
2225;SDS011;1119;48.288;8.726;2023-04-21T01:58:20;9.82;;;8.48;;
2225;SDS011;1119;48.288;8.726;2023-04-21T02:01:08;10.17;;;9.10;;
2225;SDS011;1119;48.288;8.726;2023-04-21T02:03:55;8.25;;;7.50;;
2225;SDS011;1119;48.288;8.726;2023-04-21T02:06:43;8.87;;;8.00;;
2225;SDS011;1119;48.288;8.726;2023-04-21T02:09:30;9.50;;;8.70;;
2225;SDS011;1119;48.288;8.726;2023-04-21T02:12:19;8.90;;;8.00;;
2225;SDS011;1119;48.288;8.726;2023-04-21T02:15:07;7.87;;;6.97;;
2225;SDS011;1119;48.288;8.726;2023-04-21T02:17:56;7.90;;;7.17;;
2225;SDS011;1119;48.288;8.726;2023-04-21T02:20:44;7.50;;;7.00;;
2225;SDS011;1119;48.288;8.726;2023-04-21T02:23:32;8.57;;;6.57;;
2225;SDS011;1119;48.288;8.726;2023-04-21T02:26:20;8.07;;;7.28;;
2225;SDS011;1119;48.288;8.726;2023-04-21T02:29:09;7.33;;;6.63;;
2225;SDS011;1119;48.288;8.726;2023-04-21T02:31:57;7.67;;;6.97;;
2225;SDS011;1119;48.288;8.726;2023-04-21T02:34:44;13.45;;;10.82;;
2225;SDS011;1119;48.288;8.726;2023-04-21T02:37:33;9.00;;;7.80;;
2225;SDS011;1119;48.288;8.726;2023-04-21T02:40:20;9.77;;;7.50;;
2225;SDS011;1119;48.288;8.726;2023-04-21T02:43:08;8.30;;;7.63;;
2225;SDS011;1119;48.288;8.726;2023-04-21T02:45:58;7.87;;;7.13;;
2225;SDS011;1119;48.288;8.726;2023-04-21T02:48:46;7.83;;;7.13;;
2225;SDS011;1119;48.288;8.726;2023-04-21T02:51:33;9.20;;;8.37;;
2225;SDS011;1119;48.288;8.726;2023-04-21T02:54:21;8.03;;;7.23;;
2225;SDS011;1119;48.288;8.726;2023-04-21T02:57:08;9.37;;;7.17;;
2225;SDS011;1119;48.288;8.726;2023-04-21T02:59:56;8.50;;;7.40;;
2225;SDS011;1119;48.288;8.726;2023-04-21T03:02:45;7.13;;;6.47;;
2225;SDS011;1119;48.288;8.726;2023-04-21T03:05:35;7.70;;;6.83;;
2225;SDS011;1119;48.288;8.726;2023-04-21T03:08:22;6.95;;;6.35;;
2225;SDS011;1119;48.288;8.726;2023-04-21T03:11:10;8.33;;;7.27;;
2225;SDS011;1119;48.288;8.726;2023-04-21T03:13:58;9.90;;;7.90;;
2225;SDS011;1119;48.288;8.726;2023-04-21T03:16:45;9.30;;;8.43;;
2225;SDS011;1119;48.288;8.726;2023-04-21T03:19:34;6.90;;;6.30;;
2225;SDS011;1119;48.288;8.726;2023-04-21T03:22:22;9.63;;;8.70;;
2225;SDS011;1119;48.288;8.726;2023-04-21T03:25:10;8.67;;;7.93;;
2225;SDS011;1119;48.288;8.726;2023-04-21T03:27:57;7.27;;;6.57;;
2225;SDS011;1119;48.288;8.726;2023-04-21T03:30:45;8.65;;;7.85;;
2225;SDS011;1119;48.288;8.726;2023-04-21T03:33:33;12.35;;;8.18;;
2225;SDS011;1119;48.288;8.726;2023-04-21T03:36:22;12.77;;;8.90;;
2225;SDS011;1119;48.288;8.726;2023-04-21T03:39:09;12.05;;;9.48;;
2225;SDS011;1119;48.288;8.726;2023-04-21T03:41:57;15.50;;;8.25;;
2225;SDS011;1119;48.288;8.726;2023-04-21T03:44:48;48.83;;;12.40;;
2225;SDS011;1119;48.288;8.726;2023-04-21T03:47:35;29.40;;;10.30;;
2225;SDS011;1119;48.288;8.726;2023-04-21T03:50:23;30.40;;;11.35;;
2225;SDS011;1119;48.288;8.726;2023-04-21T03:53:12;50.58;;;9.25;;
2225;SDS011;1119;48.288;8.726;2023-04-21T03:55:59;25.17;;;8.68;;
2225;SDS011;1119;48.288;8.726;2023-04-21T03:58:47;28.08;;;10.27;;
2225;SDS011;1119;48.288;8.726;2023-04-21T04:01:35;19.50;;;9.05;;
2225;SDS011;1119;48.288;8.726;2023-04-21T04:04:22;31.98;;;11.25;;
2225;SDS011;1119;48.288;8.726;2023-04-21T04:07:10;26.83;;;12.05;;
2225;SDS011;1119;48.288;8.726;2023-04-21T04:09:59;14.02;;;10.68;;
2225;SDS011;1119;48.288;8.726;2023-04-21T04:12:46;33.30;;;12.00;;
2225;SDS011;1119;48.288;8.726;2023-04-21T04:15:34;27.75;;;10.70;;
2225;SDS011;1119;48.288;8.726;2023-04-21T04:18:21;23.17;;;11.93;;
2225;SDS011;1119;48.288;8.726;2023-04-21T04:21:09;66.78;;;14.13;;
2225;SDS011;1119;48.288;8.726;2023-04-21T04:23:57;47.00;;;11.63;;
2225;SDS011;1119;48.288;8.726;2023-04-21T04:26:46;16.38;;;10.25;;
2225;SDS011;1119;48.288;8.726;2023-04-21T04:29:33;15.55;;;8.88;;
2225;SDS011;1119;48.288;8.726;2023-04-21T04:32:21;22.88;;;11.02;;
2225;SDS011;1119;48.288;8.726;2023-04-21T04:35:12;10.57;;;9.35;;
2225;SDS011;1119;48.288;8.726;2023-04-21T04:38:00;12.88;;;8.95;;
2225;SDS011;1119;48.288;8.726;2023-04-21T04:40:52;17.27;;;9.30;;
2225;SDS011;1119;48.288;8.726;2023-04-21T04:43:41;9.52;;;8.57;;
2225;SDS011;1119;48.288;8.726;2023-04-21T04:46:29;21.92;;;9.68;;
2225;SDS011;1119;48.288;8.726;2023-04-21T04:49:17;14.18;;;10.57;;
2225;SDS011;1119;48.288;8.726;2023-04-21T04:52:04;14.50;;;9.30;;
2225;SDS011;1119;48.288;8.726;2023-04-21T04:54:52;13.60;;;10.30;;
2225;SDS011;1119;48.288;8.726;2023-04-21T04:57:40;11.45;;;10.30;;
2225;SDS011;1119;48.288;8.726;2023-04-21T05:00:29;11.68;;;9.48;;
2225;SDS011;1119;48.288;8.726;2023-04-21T05:03:17;18.55;;;9.57;;
2225;SDS011;1119;48.288;8.726;2023-04-21T05:06:04;16.95;;;9.95;;
2225;SDS011;1119;48.288;8.726;2023-04-21T05:08:52;8.55;;;7.85;;
2225;SDS011;1119;48.288;8.726;2023-04-21T05:11:40;8.32;;;7.50;;
2225;SDS011;1119;48.288;8.726;2023-04-21T05:14:28;20.65;;;8.82;;
2225;SDS011;1119;48.288;8.726;2023-04-21T05:17:17;12.57;;;8.93;;
2225;SDS011;1119;48.288;8.726;2023-04-21T05:20:05;24.63;;;11.18;;
2225;SDS011;1119;48.288;8.726;2023-04-21T05:22:54;15.65;;;10.50;;
2225;SDS011;1119;48.288;8.726;2023-04-21T05:25:41;18.75;;;11.32;;
2225;SDS011;1119;48.288;8.726;2023-04-21T05:28:29;27.03;;;11.00;;
2225;SDS011;1119;48.288;8.726;2023-04-21T05:31:16;49.58;;;10.73;;
2225;SDS011;1119;48.288;8.726;2023-04-21T05:34:05;37.90;;;11.27;;
2225;SDS011;1119;48.288;8.726;2023-04-21T05:36:53;35.60;;;9.32;;
2225;SDS011;1119;48.288;8.726;2023-04-21T05:39:40;17.73;;;10.07;;
2225;SDS011;1119;48.288;8.726;2023-04-21T05:42:28;11.35;;;8.07;;
2225;SDS011;1119;48.288;8.726;2023-04-21T05:45:16;32.85;;;13.38;;
2225;SDS011;1119;48.288;8.726;2023-04-21T05:48:04;24.50;;;9.93;;
2225;SDS011;1119;48.288;8.726;2023-04-21T05:50:53;59.70;;;15.05;;
2225;SDS011;1119;48.288;8.726;2023-04-21T05:53:41;90.37;;;15.57;;
2225;SDS011;1119;48.288;8.726;2023-04-21T05:56:29;100.37;;;17.87;;
2225;SDS011;1119;48.288;8.726;2023-04-21T05:59:17;34.37;;;10.47;;
2225;SDS011;1119;48.288;8.726;2023-04-21T06:02:05;24.13;;;12.20;;
2225;SDS011;1119;48.288;8.726;2023-04-21T06:04:53;25.13;;;8.77;;
2225;SDS011;1119;48.288;8.726;2023-04-21T06:07:42;18.50;;;9.00;;
2225;SDS011;1119;48.288;8.726;2023-04-21T06:10:29;55.58;;;14.38;;
2225;SDS011;1119;48.288;8.726;2023-04-21T06:13:17;28.57;;;10.90;;
2225;SDS011;1119;48.288;8.726;2023-04-21T06:16:04;83.83;;;18.47;;
2225;SDS011;1119;48.288;8.726;2023-04-21T06:18:52;40.37;;;14.17;;
2225;SDS011;1119;48.288;8.726;2023-04-21T06:21:40;62.87;;;12.83;;
2225;SDS011;1119;48.288;8.726;2023-04-21T06:24:31;33.47;;;9.85;;
2225;SDS011;1119;48.288;8.726;2023-04-21T06:27:19;46.53;;;13.80;;
2225;SDS011;1119;48.288;8.726;2023-04-21T06:30:07;91.45;;;16.27;;
2225;SDS011;1119;48.288;8.726;2023-04-21T06:32:55;58.33;;;16.40;;
2225;SDS011;1119;48.288;8.726;2023-04-21T06:35:43;70.37;;;15.40;;
2225;SDS011;1119;48.288;8.726;2023-04-21T06:38:30;50.37;;;12.90;;
2225;SDS011;1119;48.288;8.726;2023-04-21T06:41:19;30.70;;;11.70;;
2225;SDS011;1119;48.288;8.726;2023-04-21T06:44:07;10.17;;;9.13;;
2225;SDS011;1119;48.288;8.726;2023-04-21T06:46:58;58.23;;;13.07;;
2225;SDS011;1119;48.288;8.726;2023-04-21T06:49:46;35.93;;;17.50;;
2225;SDS011;1119;48.288;8.726;2023-04-21T06:52:33;20.13;;;9.10;;
2225;SDS011;1119;48.288;8.726;2023-04-21T06:55:21;13.57;;;8.73;;
2225;SDS011;1119;48.288;8.726;2023-04-21T06:58:10;16.87;;;9.47;;
2225;SDS011;1119;48.288;8.726;2023-04-21T07:00:58;17.07;;;7.87;;
2225;SDS011;1119;48.288;8.726;2023-04-21T07:03:46;16.53;;;8.80;;
2225;SDS011;1119;48.288;8.726;2023-04-21T07:06:34;8.63;;;7.80;;
2225;SDS011;1119;48.288;8.726;2023-04-21T07:09:21;20.13;;;10.83;;
2225;SDS011;1119;48.288;8.726;2023-04-21T07:12:09;11.53;;;8.53;;
2225;SDS011;1119;48.288;8.726;2023-04-21T07:14:58;17.53;;;10.83;;
2225;SDS011;1119;48.288;8.726;2023-04-21T07:17:45;14.90;;;9.47;;
2225;SDS011;1119;48.288;8.726;2023-04-21T07:20:33;29.27;;;10.27;;
2225;SDS011;1119;48.288;8.726;2023-04-21T07:23:20;9.33;;;8.07;;
2225;SDS011;1119;48.288;8.726;2023-04-21T07:26:08;9.13;;;7.63;;
2225;SDS011;1119;48.288;8.726;2023-04-21T07:28:56;10.20;;;9.07;;
2225;SDS011;1119;48.288;8.726;2023-04-21T07:31:45;16.83;;;10.37;;
2225;SDS011;1119;48.288;8.726;2023-04-21T07:34:32;24.10;;;11.73;;
2225;SDS011;1119;48.288;8.726;2023-04-21T07:37:20;19.83;;;9.53;;
2225;SDS011;1119;48.288;8.726;2023-04-21T07:40:08;19.77;;;8.40;;
2225;SDS011;1119;48.288;8.726;2023-04-21T07:42:57;10.57;;;7.37;;
2225;SDS011;1119;48.288;8.726;2023-04-21T07:45:44;9.13;;;8.17;;
2225;SDS011;1119;48.288;8.726;2023-04-21T07:48:33;11.43;;;6.50;;
2225;SDS011;1119;48.288;8.726;2023-04-21T07:51:21;7.43;;;6.67;;
2225;SDS011;1119;48.288;8.726;2023-04-21T07:54:08;6.63;;;6.03;;
2225;SDS011;1119;48.288;8.726;2023-04-21T07:56:56;6.50;;;5.90;;
2225;SDS011;1119;48.288;8.726;2023-04-21T07:59:44;7.77;;;7.07;;
2225;SDS011;1119;48.288;8.726;2023-04-21T08:02:31;7.23;;;6.63;;
2225;SDS011;1119;48.288;8.726;2023-04-21T08:05:20;8.27;;;7.43;;
2225;SDS011;1119;48.288;8.726;2023-04-21T08:08:08;8.13;;;7.03;;
2225;SDS011;1119;48.288;8.726;2023-04-21T08:10:55;7.83;;;6.97;;
2225;SDS011;1119;48.288;8.726;2023-04-21T08:13:43;7.00;;;6.40;;
2225;SDS011;1119;48.288;8.726;2023-04-21T08:16:31;7.90;;;7.30;;
2225;SDS011;1119;48.288;8.726;2023-04-21T08:19:18;7.00;;;6.30;;
2225;SDS011;1119;48.288;8.726;2023-04-21T08:22:07;6.37;;;6.00;;
2225;SDS011;1119;48.288;8.726;2023-04-21T08:24:55;7.10;;;6.40;;
2225;SDS011;1119;48.288;8.726;2023-04-21T08:27:44;6.50;;;6.00;;
2225;SDS011;1119;48.288;8.726;2023-04-21T08:30:31;7.87;;;7.20;;
2225;SDS011;1119;48.288;8.726;2023-04-21T08:33:21;6.70;;;6.20;;
2225;SDS011;1119;48.288;8.726;2023-04-21T08:36:56;6.47;;;5.97;;
2225;SDS011;1119;48.288;8.726;2023-04-21T08:39:45;18.67;;;6.20;;
2225;SDS011;1119;48.288;8.726;2023-04-21T08:42:35;15.30;;;11.53;;
2225;SDS011;1119;48.288;8.726;2023-04-21T08:45:24;6.40;;;5.90;;
2225;SDS011;1119;48.288;8.726;2023-04-21T08:48:13;8.10;;;6.60;;
2225;SDS011;1119;48.288;8.726;2023-04-21T08:51:06;7.63;;;7.03;;
2225;SDS011;1119;48.288;8.726;2023-04-21T08:53:55;7.13;;;6.50;;
2225;SDS011;1119;48.288;8.726;2023-04-21T08:56:44;6.83;;;6.17;;
2225;SDS011;1119;48.288;8.726;2023-04-21T08:59:34;7.43;;;6.73;;
2225;SDS011;1119;48.288;8.726;2023-04-21T09:02:21;6.87;;;6.37;;
2225;SDS011;1119;48.288;8.726;2023-04-21T09:05:16;5.50;;;5.10;;
2225;SDS011;1119;48.288;8.726;2023-04-21T09:08:09;7.23;;;6.73;;
2225;SDS011;1119;48.288;8.726;2023-04-21T09:10:58;6.90;;;6.20;;
2225;SDS011;1119;48.288;8.726;2023-04-21T09:13:48;6.47;;;5.97;;
2225;SDS011;1119;48.288;8.726;2023-04-21T09:16:36;7.53;;;6.93;;
2225;SDS011;1119;48.288;8.726;2023-04-21T09:19:25;5.90;;;5.40;;
2225;SDS011;1119;48.288;8.726;2023-04-21T09:22:13;6.90;;;6.30;;
2225;SDS011;1119;48.288;8.726;2023-04-21T09:25:01;6.43;;;5.93;;
2225;SDS011;1119;48.288;8.726;2023-04-21T09:27:49;6.80;;;6.20;;
2225;SDS011;1119;48.288;8.726;2023-04-21T09:30:41;6.50;;;6.00;;
2225;SDS011;1119;48.288;8.726;2023-04-21T09:33:31;6.40;;;6.00;;
2225;SDS011;1119;48.288;8.726;2023-04-21T09:36:21;6.70;;;6.13;;
2225;SDS011;1119;48.288;8.726;2023-04-21T09:39:10;6.90;;;6.37;;
2225;SDS011;1119;48.288;8.726;2023-04-21T09:41:58;7.10;;;6.40;;
2225;SDS011;1119;48.288;8.726;2023-04-21T09:44:47;8.93;;;8.20;;
2225;SDS011;1119;48.288;8.726;2023-04-21T09:47:37;7.03;;;6.33;;
2225;SDS011;1119;48.288;8.726;2023-04-21T09:50:27;8.67;;;7.67;;
2225;SDS011;1119;48.288;8.726;2023-04-21T09:53:15;7.77;;;7.07;;
2225;SDS011;1119;48.288;8.726;2023-04-21T09:56:04;14.03;;;7.73;;
2225;SDS011;1119;48.288;8.726;2023-04-21T09:58:56;7.10;;;6.57;;
2225;SDS011;1119;48.288;8.726;2023-04-21T10:01:47;8.33;;;7.53;;
2225;SDS011;1119;48.288;8.726;2023-04-21T10:04:39;9.17;;;8.27;;
2225;SDS011;1119;48.288;8.726;2023-04-21T10:07:28;9.10;;;8.30;;
2225;SDS011;1119;48.288;8.726;2023-04-21T10:10:18;8.77;;;7.97;;
2225;SDS011;1119;48.288;8.726;2023-04-21T10:13:11;9.20;;;8.40;;
2225;SDS011;1119;48.288;8.726;2023-04-21T10:16:01;9.43;;;8.63;;
2225;SDS011;1119;48.288;8.726;2023-04-21T10:18:50;9.40;;;8.50;;
2225;SDS011;1119;48.288;8.726;2023-04-21T10:21:39;9.43;;;8.63;;
2225;SDS011;1119;48.288;8.726;2023-04-21T10:24:27;9.43;;;8.50;;
2225;SDS011;1119;48.288;8.726;2023-04-21T10:27:29;8.70;;;7.93;;
2225;SDS011;1119;48.288;8.726;2023-04-21T10:30:18;8.13;;;7.53;;
2225;SDS011;1119;48.288;8.726;2023-04-21T10:33:08;9.73;;;8.93;;
2225;SDS011;1119;48.288;8.726;2023-04-21T10:35:59;9.30;;;8.50;;
2225;SDS011;1119;48.288;8.726;2023-04-21T10:38:53;89.10;;;69.47;;
2225;SDS011;1119;48.288;8.726;2023-04-21T10:41:42;115.33;;;104.87;;
2225;SDS011;1119;48.288;8.726;2023-04-21T10:44:30;47.10;;;44.73;;
2225;SDS011;1119;48.288;8.726;2023-04-21T10:47:23;60.73;;;57.23;;
2225;SDS011;1119;48.288;8.726;2023-04-21T10:50:13;22.40;;;20.90;;
2225;SDS011;1119;48.288;8.726;2023-04-21T10:53:06;31.70;;;29.70;;
2225;SDS011;1119;48.288;8.726;2023-04-21T10:55:57;20.40;;;19.33;;
2225;SDS011;1119;48.288;8.726;2023-04-21T10:58:45;17.63;;;16.47;;
2225;SDS011;1119;48.288;8.726;2023-04-21T11:01:38;20.70;;;19.50;;
2225;SDS011;1119;48.288;8.726;2023-04-21T11:04:26;31.37;;;29.83;;
2225;SDS011;1119;48.288;8.726;2023-04-21T11:07:15;20.63;;;19.00;;
2225;SDS011;1119;48.288;8.726;2023-04-21T11:10:06;28.77;;;27.17;;
2225;SDS011;1119;48.288;8.726;2023-04-21T11:12:57;30.67;;;28.97;;
2225;SDS011;1119;48.288;8.726;2023-04-21T11:15:54;38.07;;;36.07;;
2225;SDS011;1119;48.288;8.726;2023-04-21T11:18:46;54.93;;;52.30;;
2225;SDS011;1119;48.288;8.726;2023-04-21T11:21:34;63.30;;;60.10;;
2225;SDS011;1119;48.288;8.726;2023-04-21T11:24:22;90.47;;;85.77;;
2225;SDS011;1119;48.288;8.726;2023-04-21T11:27:10;39.33;;;36.93;;
2225;SDS011;1119;48.288;8.726;2023-04-21T11:30:01;40.97;;;38.43;;
2225;SDS011;1119;48.288;8.726;2023-04-21T11:32:52;71.03;;;66.83;;
2225;SDS011;1119;48.288;8.726;2023-04-21T11:35:40;220.90;;;177.83;;
2225;SDS011;1119;48.288;8.726;2023-04-21T11:38:32;178.60;;;165.37;;
2225;SDS011;1119;48.288;8.726;2023-04-21T11:41:24;162.80;;;151.20;;
2225;SDS011;1119;48.288;8.726;2023-04-21T11:44:12;156.80;;;145.73;;
2225;SDS011;1119;48.288;8.726;2023-04-21T11:47:12;159.27;;;148.07;;
2225;SDS011;1119;48.288;8.726;2023-04-21T11:50:02;94.83;;;89.53;;
2225;SDS011;1119;48.288;8.726;2023-04-21T11:52:51;126.30;;;117.17;;
2225;SDS011;1119;48.288;8.726;2023-04-21T11:55:40;152.13;;;141.40;;
2225;SDS011;1119;48.288;8.726;2023-04-21T11:58:30;112.37;;;105.13;;
2225;SDS011;1119;48.288;8.726;2023-04-21T12:01:17;90.17;;;84.17;;
2225;SDS011;1119;48.288;8.726;2023-04-21T12:04:12;130.47;;;122.17;;
2225;SDS011;1119;48.288;8.726;2023-04-21T12:07:01;147.33;;;136.60;;
2225;SDS011;1119;48.288;8.726;2023-04-21T12:09:50;132.17;;;123.53;;
2225;SDS011;1119;48.288;8.726;2023-04-21T12:12:38;120.70;;;113.23;;
2225;SDS011;1119;48.288;8.726;2023-04-21T12:15:27;84.93;;;79.60;;
2225;SDS011;1119;48.288;8.726;2023-04-21T12:18:16;90.63;;;85.43;;
2225;SDS011;1119;48.288;8.726;2023-04-21T12:21:05;123.17;;;115.20;;
2225;SDS011;1119;48.288;8.726;2023-04-21T12:23:53;79.00;;;73.23;;
2225;SDS011;1119;48.288;8.726;2023-04-21T12:26:41;100.33;;;94.10;;
2225;SDS011;1119;48.288;8.726;2023-04-21T12:29:29;65.27;;;61.73;;
2225;SDS011;1119;48.288;8.726;2023-04-21T12:32:17;81.77;;;76.97;;
2225;SDS011;1119;48.288;8.726;2023-04-21T12:35:05;110.73;;;104.03;;
2225;SDS011;1119;48.288;8.726;2023-04-21T12:37:55;80.57;;;75.80;;
2225;SDS011;1119;48.288;8.726;2023-04-21T12:40:42;129.30;;;119.10;;
2225;SDS011;1119;48.288;8.726;2023-04-21T12:43:30;113.87;;;107.07;;
2225;SDS011;1119;48.288;8.726;2023-04-21T12:46:17;148.70;;;138.67;;
2225;SDS011;1119;48.288;8.726;2023-04-21T12:49:05;232.40;;;211.60;;
2225;SDS011;1119;48.288;8.726;2023-04-21T12:51:54;104.93;;;98.23;;
2225;SDS011;1119;48.288;8.726;2023-04-21T12:54:43;73.37;;;68.97;;
2225;SDS011;1119;48.288;8.726;2023-04-21T12:57:31;125.47;;;116.77;;
2225;SDS011;1119;48.288;8.726;2023-04-21T13:00:19;443.47;;;399.87;;
2225;SDS011;1119;48.288;8.726;2023-04-21T13:03:07;492.20;;;441.10;;
2225;SDS011;1119;48.288;8.726;2023-04-21T13:05:55;466.70;;;419.40;;
2225;SDS011;1119;48.288;8.726;2023-04-21T13:08:43;545.00;;;480.90;;
2225;SDS011;1119;48.288;8.726;2023-04-21T13:11:32;510.60;;;456.70;;
2225;SDS011;1119;48.288;8.726;2023-04-21T13:14:20;382.77;;;344.83;;
2225;SDS011;1119;48.288;8.726;2023-04-21T13:17:08;420.63;;;377.67;;
2225;SDS011;1119;48.288;8.726;2023-04-21T13:19:55;208.47;;;190.10;;
2225;SDS011;1119;48.288;8.726;2023-04-21T13:22:43;342.40;;;310.13;;
2225;SDS011;1119;48.288;8.726;2023-04-21T13:25:31;521.10;;;465.33;;
2225;SDS011;1119;48.288;8.726;2023-04-21T13:28:20;888.97;;;651.80;;
2225;SDS011;1119;48.288;8.726;2023-04-21T13:31:08;433.10;;;389.90;;
2225;SDS011;1119;48.288;8.726;2023-04-21T13:33:55;318.97;;;287.37;;
2225;SDS011;1119;48.288;8.726;2023-04-21T13:36:43;649.77;;;478.23;;
2225;SDS011;1119;48.288;8.726;2023-04-21T13:39:30;353.17;;;320.13;;
2225;SDS011;1119;48.288;8.726;2023-04-21T13:42:18;207.37;;;190.73;;
2225;SDS011;1119;48.288;8.726;2023-04-21T13:45:08;211.10;;;193.60;;
2225;SDS011;1119;48.288;8.726;2023-04-21T13:47:57;322.47;;;292.47;;
2225;SDS011;1119;48.288;8.726;2023-04-21T13:50:44;170.73;;;157.90;;
2225;SDS011;1119;48.288;8.726;2023-04-21T13:53:32;149.37;;;137.90;;
2225;SDS011;1119;48.288;8.726;2023-04-21T13:56:20;108.07;;;101.23;;
2225;SDS011;1119;48.288;8.726;2023-04-21T13:59:08;290.80;;;256.10;;
2225;SDS011;1119;48.288;8.726;2023-04-21T14:02:00;195.60;;;172.43;;
2225;SDS011;1119;48.288;8.726;2023-04-21T14:04:48;190.87;;;175.67;;
2225;SDS011;1119;48.288;8.726;2023-04-21T14:07:36;143.97;;;134.43;;
2225;SDS011;1119;48.288;8.726;2023-04-21T14:10:24;119.60;;;112.00;;
2225;SDS011;1119;48.288;8.726;2023-04-21T14:13:11;166.10;;;147.20;;
2225;SDS011;1119;48.288;8.726;2023-04-21T14:15:59;94.63;;;88.83;;
2225;SDS011;1119;48.288;8.726;2023-04-21T14:18:48;142.73;;;131.50;;
2225;SDS011;1119;48.288;8.726;2023-04-21T14:21:37;110.20;;;103.63;;
2225;SDS011;1119;48.288;8.726;2023-04-21T14:24:25;146.80;;;136.53;;
2225;SDS011;1119;48.288;8.726;2023-04-21T14:27:14;77.30;;;72.83;;
2225;SDS011;1119;48.288;8.726;2023-04-21T14:30:02;159.30;;;127.03;;
2225;SDS011;1119;48.288;8.726;2023-04-21T14:32:51;101.07;;;90.87;;
2225;SDS011;1119;48.288;8.726;2023-04-21T14:35:40;136.87;;;127.23;;
2225;SDS011;1119;48.288;8.726;2023-04-21T14:38:28;47.93;;;44.70;;
2225;SDS011;1119;48.288;8.726;2023-04-21T14:41:16;784.03;;;540.50;;
2225;SDS011;1119;48.288;8.726;2023-04-21T14:44:04;219.80;;;199.57;;
2225;SDS011;1119;48.288;8.726;2023-04-21T14:46:51;172.47;;;154.77;;
2225;SDS011;1119;48.288;8.726;2023-04-21T14:49:39;36.00;;;34.00;;
2225;SDS011;1119;48.288;8.726;2023-04-21T14:52:28;233.03;;;209.50;;
2225;SDS011;1119;48.288;8.726;2023-04-21T14:55:16;169.50;;;155.77;;
2225;SDS011;1119;48.288;8.726;2023-04-21T14:58:04;154.90;;;138.07;;
2225;SDS011;1119;48.288;8.726;2023-04-21T15:00:51;71.30;;;67.13;;
2225;SDS011;1119;48.288;8.726;2023-04-21T15:03:39;453.97;;;293.03;;
2225;SDS011;1119;48.288;8.726;2023-04-21T15:06:27;121.50;;;112.30;;
2225;SDS011;1119;48.288;8.726;2023-04-21T15:09:17;207.87;;;191.63;;
2225;SDS011;1119;48.288;8.726;2023-04-21T15:12:05;233.43;;;209.73;;
2225;SDS011;1119;48.288;8.726;2023-04-21T15:14:53;38.70;;;36.23;;
2225;SDS011;1119;48.288;8.726;2023-04-21T15:17:40;144.33;;;133.47;;
2225;SDS011;1119;48.288;8.726;2023-04-21T15:20:28;41.97;;;38.57;;
2225;SDS011;1119;48.288;8.726;2023-04-21T15:23:15;24.93;;;22.73;;
2225;SDS011;1119;48.288;8.726;2023-04-21T15:26:04;11.83;;;10.70;;
2225;SDS011;1119;48.288;8.726;2023-04-21T15:28:52;14.37;;;10.33;;
2225;SDS011;1119;48.288;8.726;2023-04-21T15:31:40;20.97;;;19.17;;
2225;SDS011;1119;48.288;8.726;2023-04-21T15:34:28;11.63;;;10.40;;
2225;SDS011;1119;48.288;8.726;2023-04-21T15:37:15;16.73;;;15.23;;
2225;SDS011;1119;48.288;8.726;2023-04-21T15:40:05;61.33;;;57.33;;
2225;SDS011;1119;48.288;8.726;2023-04-21T15:42:56;45.73;;;42.97;;
2225;SDS011;1119;48.288;8.726;2023-04-21T15:45:43;48.30;;;45.13;;
2225;SDS011;1119;48.288;8.726;2023-04-21T15:48:31;60.67;;;57.07;;
2225;SDS011;1119;48.288;8.726;2023-04-21T15:51:18;23.13;;;21.50;;
2225;SDS011;1119;48.288;8.726;2023-04-21T15:54:06;15.87;;;14.20;;
2225;SDS011;1119;48.288;8.726;2023-04-21T15:56:55;53.57;;;46.00;;
2225;SDS011;1119;48.288;8.726;2023-04-21T15:59:44;31.43;;;28.03;;
2225;SDS011;1119;48.288;8.726;2023-04-21T16:02:32;23.97;;;22.03;;
2225;SDS011;1119;48.288;8.726;2023-04-21T16:05:19;11.87;;;8.33;;
2225;SDS011;1119;48.288;8.726;2023-04-21T16:08:07;13.00;;;11.70;;
2225;SDS011;1119;48.288;8.726;2023-04-21T16:10:55;13.27;;;11.53;;
2225;SDS011;1119;48.288;8.726;2023-04-21T16:13:42;13.60;;;9.67;;
2225;SDS011;1119;48.288;8.726;2023-04-21T16:16:31;8.90;;;7.97;;
2225;SDS011;1119;48.288;8.726;2023-04-21T16:19:21;12.00;;;8.70;;
2225;SDS011;1119;48.288;8.726;2023-04-21T16:22:09;28.33;;;26.20;;
2225;SDS011;1119;48.288;8.726;2023-04-21T16:24:56;183.23;;;146.33;;
2225;SDS011;1119;48.288;8.726;2023-04-21T16:27:45;80.93;;;75.77;;
2225;SDS011;1119;48.288;8.726;2023-04-21T16:30:32;34.30;;;31.73;;
2225;SDS011;1119;48.288;8.726;2023-04-21T16:33:22;15.90;;;14.23;;
2225;SDS011;1119;48.288;8.726;2023-04-21T16:36:09;21.13;;;19.10;;
2225;SDS011;1119;48.288;8.726;2023-04-21T16:38:57;183.37;;;125.50;;
2225;SDS011;1119;48.288;8.726;2023-04-21T16:41:45;203.77;;;135.00;;
2225;SDS011;1119;48.288;8.726;2023-04-21T16:44:33;189.67;;;169.80;;
2225;SDS011;1119;48.288;8.726;2023-04-21T16:47:20;32.00;;;29.47;;
2225;SDS011;1119;48.288;8.726;2023-04-21T16:50:10;11.77;;;10.53;;
2225;SDS011;1119;48.288;8.726;2023-04-21T16:52:58;22.13;;;20.10;;
2225;SDS011;1119;48.288;8.726;2023-04-21T16:55:45;15.97;;;14.70;;
2225;SDS011;1119;48.288;8.726;2023-04-21T16:58:33;15.70;;;14.10;;
2225;SDS011;1119;48.288;8.726;2023-04-21T17:04:30;8.63;;;7.90;;